Time;durP1;ratioP1;P1;durP2;ratioP2;P2;SDS_P1;SDS_P2;PMS_P1;PMS_P2;Temp;Humidity;BMP_temperature;BMP_pressure;BME280_temperature;BME280_humidity;BME280_pressure;Samples;Min_cycle;Max_cycle;Signal;HPM_P1;HPM_P2
2020/12/20 00:00:58;;;;;;;33.00;18.75;;;;;;;1.38;94.90;101444.41;4936639;28;20064;-53
2020/12/20 00:03:24;;;;;;;32.40;19.15;;;;;;;1.12;96.14;101452.53;4937476;28;20059;-54
2020/12/20 00:05:51;;;;;;;31.08;19.05;;;;;;;1.07;96.34;101452.19;4932852;28;20043;-52
2020/12/20 00:08:17;;;;;;;31.35;18.67;;;;;;;1.10;95.87;101459.09;4931784;28;20082;-48
2020/12/20 00:10:44;;;;;;;29.58;17.95;;;;;;;0.93;96.85;101461.25;4935775;28;20063;-55
2020/12/20 00:13:11;;;;;;;30.00;18.65;;;;;;;1.27;96.36;101463.78;4938185;28;20502;-52
2020/12/20 00:15:37;;;;;;;30.45;17.38;;;;;;;1.18;96.43;101463.09;4936041;28;20051;-49
2020/12/20 00:18:04;;;;;;;32.53;19.02;;;;;;;0.99;96.92;101458.28;4936965;28;20052;-49
2020/12/20 00:20:30;;;;;;;29.55;18.55;;;;;;;1.09;96.64;101458.22;4936542;28;20071;-48
2020/12/20 00:22:56;;;;;;;32.22;19.73;;;;;;;0.86;96.67;101461.50;4936266;28;20044;-51
2020/12/20 00:25:23;;;;;;;33.30;19.67;;;;;;;1.13;97.60;101447.59;4937666;28;20102;-53
2020/12/20 00:27:49;;;;;;;31.67;19.67;;;;;;;1.17;96.90;101452.13;4935217;28;20126;-50
2020/12/20 00:30:15;;;;;;;35.83;20.05;;;;;;;1.11;96.88;101460.84;4938200;28;20124;-53
2020/12/20 00:32:42;;;;;;;33.40;20.02;;;;;;;0.98;97.69;101457.41;4935686;28;20051;-48
2020/12/20 00:35:08;;;;;;;36.08;19.75;;;;;;;1.14;97.08;101453.53;4937707;28;20055;-49
2020/12/20 00:37:35;;;;;;;31.73;19.02;;;;;;;0.88;97.23;101460.00;4935667;28;20103;-54
2020/12/20 00:40:04;;;;;;;31.13;19.00;;;;;;;0.83;98.35;101452.84;4936413;28;20051;-53
2020/12/20 00:42:30;;;;;;;30.85;20.10;;;;;;;0.99;97.49;101456.66;4936123;28;20118;-53
2020/12/20 00:44:57;;;;;;;33.22;19.98;;;;;;;0.92;97.87;101451.88;4935560;28;20079;-57
2020/12/20 00:47:23;;;;;;;29.33;18.35;;;;;;;0.90;97.35;101453.44;4936791;28;20063;-55
2020/12/20 00:49:50;;;;;;;32.33;18.80;;;;;;;1.35;96.29;101450.09;4934972;28;20048;-51
2020/12/20 00:52:16;;;;;;;28.45;18.95;;;;;;;1.05;95.83;101458.75;4930438;28;20130;-53
2020/12/20 00:54:43;;;;;;;33.65;18.55;;;;;;;1.27;95.93;101458.75;4932057;28;20075;-53
2020/12/20 00:57:10;;;;;;;29.67;18.60;;;;;;;1.30;95.38;101458.09;4936988;28;20050;-51
2020/12/20 00:59:36;;;;;;;31.10;19.25;;;;;;;1.17;95.82;101462.22;4934859;28;20832;-54
2020/12/20 01:02:02;;;;;;;34.28;20.17;;;;;;;1.26;96.14;101462.03;4936551;28;20110;-48
2020/12/20 01:04:29;;;;;;;33.22;19.23;;;;;;;1.09;96.90;101455.69;4936072;28;20055;-51
2020/12/20 01:06:59;;;;;;;31.17;18.88;;;;;;;1.32;95.40;101456.56;4935006;28;20193;-52
2020/12/20 01:09:26;;;;;;;28.88;18.25;;;;;;;1.17;95.82;101458.81;4936337;28;20106;-54
2020/12/20 01:11:56;;;;;;;33.55;20.35;;;;;;;1.15;96.02;101461.19;4931357;28;20052;-51
2020/12/20 01:14:23;;;;;;;32.35;20.25;;;;;;;0.97;96.53;101457.28;4936736;28;20493;-49
2020/12/20 01:16:49;;;;;;;31.98;19.60;;;;;;;1.41;95.40;101453.06;4934221;28;20111;-50
2020/12/20 01:19:16;;;;;;;34.17;20.42;;;;;;;1.03;96.01;101455.25;4937226;28;20051;-51
2020/12/20 01:21:42;;;;;;;33.72;20.05;;;;;;;1.39;95.35;101449.56;4934265;28;20450;-50
2020/12/20 01:24:09;;;;;;;32.28;20.75;;;;;;;1.15;95.63;101452.75;4936598;28;20099;-53
2020/12/20 01:26:35;;;;;;;34.75;19.92;;;;;;;1.21;96.26;101459.16;4934915;28;20427;-52
2020/12/20 01:29:02;;;;;;;30.92;19.40;;;;;;;1.15;95.59;101461.19;4935472;28;20054;-49
2020/12/20 01:31:28;;;;;;;36.78;22.05;;;;;;;1.16;95.56;101462.97;4935299;28;20062;-49
2020/12/20 01:33:55;;;;;;;35.15;21.23;;;;;;;1.03;96.76;101467.84;4936240;28;20048;-50
2020/12/20 01:36:22;;;;;;;37.83;21.75;;;;;;;1.16;96.55;101462.09;4936034;28;20058;-49
2020/12/20 01:38:48;;;;;;;33.95;21.05;;;;;;;1.06;96.92;101455.47;4933860;28;20054;-51
2020/12/20 01:41:15;;;;;;;34.40;20.92;;;;;;;0.90;97.77;101467.69;4938605;28;20413;-53
2020/12/20 01:43:46;;;;;;;32.45;20.65;;;;;;;0.96;97.27;101468.13;4933955;28;20415;-50
2020/12/20 01:46:16;;;;;;;33.88;21.30;;;;;;;0.85;97.52;101479.06;4936594;28;20055;-54
2020/12/20 01:48:43;;;;;;;35.90;21.48;;;;;;;0.64;98.39;101475.75;4932864;28;20422;-52
2020/12/20 01:51:11;;;;;;;36.67;22.17;;;;;;;0.49;98.40;101468.75;4936439;28;20047;-50
2020/12/20 01:53:39;;;;;;;33.63;20.52;;;;;;;0.45;99.30;101468.38;4933779;28;20095;-51
2020/12/20 01:56:07;;;;;;;35.58;22.05;;;;;;;0.42;99.69;101480.75;4936173;28;20134;-51
2020/12/20 01:58:37;;;;;;;35.78;21.13;;;;;;;0.25;100.00;101484.47;4934336;28;20155;-51
2020/12/20 02:01:09;;;;;;;37.95;22.17;;;;;;;0.20;100.00;101475.66;4935499;28;20044;-51
2020/12/20 02:03:36;;;;;;;38.72;23.05;;;;;;;0.34;100.00;101469.19;4933083;28;20043;-51
2020/12/20 02:06:05;;;;;;;39.45;22.42;;;;;;;0.12;100.00;101471.63;4935439;28;20050;-50
2020/12/20 02:08:33;;;;;;;36.65;21.88;;;;;;;0.16;100.00;101464.44;4934504;28;20054;-54
2020/12/20 02:11:18;;;;;;;36.60;22.52;;;;;;;0.22;100.00;101464.06;4935088;28;20507;-54
2020/12/20 02:13:53;;;;;;;39.00;23.30;;;;;;;0.12;100.00;101470.00;4933045;28;20150;-53
2020/12/20 02:16:22;;;;;;;39.08;22.83;;;;;;;0.36;100.00;101465.13;4931314;28;20058;-50
2020/12/20 02:18:50;;;;;;;37.22;21.45;;;;;;;0.66;99.65;101469.19;4934863;28;20094;-53
2020/12/20 02:21:18;;;;;;;39.95;22.73;;;;;;;0.44;99.37;101462.47;4930729;28;20601;-50
2020/12/20 02:23:50;;;;;;;34.20;21.17;;;;;;;0.37;99.91;101465.28;4935440;28;20056;-49
2020/12/20 02:26:21;;;;;;;36.70;21.75;;;;;;;0.62;99.60;101455.47;4929145;28;20058;-48
2020/12/20 02:28:52;;;;;;;33.83;20.10;;;;;;;0.55;99.52;101454.88;4933546;28;20055;-53
2020/12/20 02:31:19;;;;;;;38.75;21.05;;;;;;;1.06;97.76;101455.47;4930303;28;20055;-52
2020/12/20 02:33:47;;;;;;;38.08;22.77;;;;;;;1.13;96.54;101457.69;4933564;28;20043;-49
2020/12/20 02:36:14;;;;;;;39.65;24.55;;;;;;;0.98;96.80;101454.03;4937969;28;20047;-54
2020/12/20 02:38:41;;;;;;;37.28;22.38;;;;;;;1.19;96.42;101462.31;4933292;28;20055;-48
2020/12/20 02:41:08;;;;;;;38.97;22.90;;;;;;;1.03;96.61;101450.22;4935428;28;20067;-49
2020/12/20 02:43:34;;;;;;;39.05;23.80;;;;;;;1.08;96.64;101455.59;4934289;28;20055;-49
2020/12/20 02:46:02;;;;;;;41.63;23.58;;;;;;;0.90;97.16;101453.44;4934571;28;20055;-55
2020/12/20 02:48:29;;;;;;;37.85;21.45;;;;;;;0.94;96.76;101457.94;4934496;28;20051;-54
2020/12/20 02:50:55;;;;;;;39.42;22.70;;;;;;;0.78;97.10;101447.44;4933782;28;20052;-53
2020/12/20 02:53:22;;;;;;;41.22;24.15;;;;;;;0.29;99.30;101448.69;4935510;28;20059;-52
2020/12/20 02:55:48;;;;;;;41.58;23.83;;;;;;;0.11;100.00;101440.53;4933161;28;20077;-51
2020/12/20 02:58:15;;;;;;;41.17;23.58;;;;;;;-0.06;100.00;101443.34;4935810;28;20656;-48
2020/12/20 03:00:42;;;;;;;43.90;24.60;;;;;;;-0.12;100.00;101451.28;4933183;28;20043;-52
2020/12/20 03:03:10;;;;;;;47.92;24.08;;;;;;;-0.06;100.00;101443.34;4935499;28;20059;-51
2020/12/20 03:05:36;;;;;;;42.30;24.30;;;;;;;0.02;100.00;101442.34;4933779;28;20051;-54
2020/12/20 03:08:04;;;;;;;45.80;25.00;;;;;;;-0.11;100.00;101447.13;4934487;28;20123;-53
2020/12/20 03:10:30;;;;;;;44.97;23.73;;;;;;;0.06;100.00;101444.34;4934095;28;20054;-52
2020/12/20 03:12:57;;;;;;;43.25;24.17;;;;;;;0.00;100.00;101446.38;4933664;28;20130;-51
2020/12/20 03:15:24;;;;;;;41.08;23.85;;;;;;;0.01;100.00;101448.13;4935193;28;20055;-51
2020/12/20 03:17:50;;;;;;;39.83;23.55;;;;;;;0.01;100.00;101454.81;4932851;28;20062;-51
2020/12/20 03:20:17;;;;;;;42.40;25.13;;;;;;;0.07;100.00;101458.69;4930316;28;20399;-49
2020/12/20 03:22:44;;;;;;;41.58;23.13;;;;;;;-0.19;100.00;101449.03;4934757;28;20509;-51
2020/12/20 03:25:10;;;;;;;40.83;24.13;;;;;;;0.06;100.00;101444.34;4935502;28;20145;-52
2020/12/20 03:27:37;;;;;;;45.15;24.75;;;;;;;-0.11;100.00;101447.13;4932698;28;20056;-51
2020/12/20 03:30:04;;;;;;;43.17;23.75;;;;;;;0.21;100.00;101444.66;4934884;28;20051;-53
2020/12/20 03:32:31;;;;;;;42.40;24.35;;;;;;;-0.07;100.00;101444.13;4934125;28;20043;-50
2020/12/20 03:34:58;;;;;;;46.22;25.27;;;;;;;-0.20;100.00;101443.88;4934045;28;20056;-52
2020/12/20 03:37:25;;;;;;;40.92;23.42;;;;;;;0.07;100.00;101441.06;4934489;28;20056;-48
2020/12/20 03:39:51;;;;;;;45.53;24.52;;;;;;;0.28;100.00;101446.94;4932602;28;20044;-54
2020/12/20 03:42:18;;;;;;;43.75;25.38;;;;;;;0.08;100.00;101445.31;4935643;28;20528;-53
2020/12/20 03:44:45;;;;;;;39.60;24.00;;;;;;;-0.06;100.00;101444.22;4935068;28;20075;-50
2020/12/20 03:47:11;;;;;;;40.40;24.15;;;;;;;-0.14;100.00;101444.38;4938663;28;20055;-55
2020/12/20 03:49:38;;;;;;;42.85;24.33;;;;;;;-0.12;100.00;101447.91;4936307;28;20082;-52
2020/12/20 03:52:05;;;;;;;40.35;23.38;;;;;;;-0.11;100.00;101450.53;4938291;28;20879;-54
2020/12/20 03:54:31;;;;;;;41.17;23.65;;;;;;;0.02;100.00;101449.88;4938582;28;20051;-51
2020/12/20 03:56:58;;;;;;;43.35;24.65;;;;;;;-0.23;100.00;101441.13;4937078;28;20055;-54
2020/12/20 03:59:24;;;;;;;46.80;25.67;;;;;;;-0.37;100.00;101442.50;4937143;28;20058;-50
2020/12/20 04:01:51;;;;;;;47.13;25.80;;;;;;;-0.36;100.00;101439.25;4937339;28;20429;-55
2020/12/20 04:04:18;;;;;;;46.35;25.90;;;;;;;0.05;100.00;101442.59;4938860;28;20134;-47
2020/12/20 04:06:45;;;;;;;49.92;26.05;;;;;;;0.04;100.00;101455.91;4936162;28;20415;-54
2020/12/20 04:09:11;;;;;;;45.60;26.00;;;;;;;-0.26;100.00;101454.34;4938479;28;20051;-49
2020/12/20 04:11:38;;;;;;;46.42;24.83;;;;;;;-0.23;100.00;101456.22;4936290;28;20047;-49
2020/12/20 04:14:04;;;;;;;47.05;26.27;;;;;;;-0.24;100.00;101459.50;4938291;28;20517;-51
2020/12/20 04:16:31;;;;;;;45.83;25.17;;;;;;;-0.18;100.00;101457.50;4936861;28;20062;-52
2020/12/20 04:18:57;;;;;;;47.28;25.50;;;;;;;-0.43;100.00;101452.97;4936453;28;20047;-49
2020/12/20 04:21:30;;;;;;;46.42;26.10;;;;;;;-0.46;100.00;101454.34;4937064;28;20047;-51
2020/12/20 04:23:56;;;;;;;45.65;25.50;;;;;;;0.10;100.00;101453.91;4936441;28;20159;-49
2020/12/20 04:26:23;;;;;;;44.00;24.95;;;;;;;0.17;100.00;101453.63;4937810;28;20458;-48
2020/12/20 04:28:50;;;;;;;44.95;25.05;;;;;;;0.32;100.00;101456.47;4935406;28;20515;-51
2020/12/20 04:31:16;;;;;;;41.15;23.02;;;;;;;0.27;100.00;101454.34;4932678;28;20048;-51
2020/12/20 04:33:46;;;;;;;44.00;24.35;;;;;;;0.15;99.69;101449.22;4937256;28;20048;-54
2020/12/20 04:36:13;;;;;;;42.20;24.08;;;;;;;-0.10;100.00;101458.97;4938312;28;20066;-51
2020/12/20 04:38:39;;;;;;;45.42;25.67;;;;;;;-0.21;100.00;101452.19;4933636;28;20561;-52
2020/12/20 04:41:06;;;;;;;46.88;25.05;;;;;;;-0.08;100.00;101455.81;4937754;28;20047;-50
2020/12/20 04:43:33;;;;;;;43.97;26.98;;;;;;;0.13;100.00;101451.59;4936427;28;20046;-48
2020/12/20 04:46:03;;;;;;;45.97;25.67;;;;;;;0.02;100.00;101447.38;4936528;28;20044;-55
2020/12/20 04:48:38;;;;;;;48.13;25.90;;;;;;;-0.20;100.00;101447.28;4936222;28;20058;-53
2020/12/20 04:51:06;;;;;;;43.67;24.45;;;;;;;-0.08;100.00;101448.28;4939072;28;20099;-52
2020/12/20 04:53:33;;;;;;;48.25;25.75;;;;;;;0.13;100.00;101454.13;4936273;28;20174;-52
2020/12/20 04:56:06;;;;;;;48.03;26.10;;;;;;;0.16;99.96;101450.97;4936259;28;20522;-53
2020/12/20 04:58:35;;;;;;;50.20;26.88;;;;;;;-0.05;100.00;101452.66;4935924;28;20051;-50
2020/12/20 05:01:03;;;;;;;48.33;27.10;;;;;;;0.17;100.00;101456.13;4936308;28;20154;-49
2020/12/20 05:03:30;;;;;;;45.53;26.73;;;;;;;0.19;100.00;101459.66;4936835;28;20055;-50
2020/12/20 05:05:57;;;;;;;46.17;26.23;;;;;;;0.19;100.00;101454.63;4936122;28;20058;-49
2020/12/20 05:08:24;;;;;;;44.55;25.00;;;;;;;0.30;99.92;101452.06;4938681;28;20148;-52
2020/12/20 05:10:53;;;;;;;45.95;24.92;;;;;;;0.25;100.00;101455.09;4935292;28;20062;-52
2020/12/20 05:13:23;;;;;;;46.97;26.25;;;;;;;0.01;100.00;101458.19;4932262;28;20065;-50
2020/12/20 05:15:49;;;;;;;46.42;26.20;;;;;;;0.07;100.00;101451.13;4934841;28;20055;-52
2020/12/20 05:18:17;;;;;;;49.90;26.98;;;;;;;-0.06;100.00;101453.41;4938239;28;20055;-53
2020/12/20 05:20:46;;;;;;;49.33;26.30;;;;;;;0.08;100.00;101450.38;4936278;28;20499;-52
2020/12/20 05:23:16;;;;;;;46.72;26.90;;;;;;;0.13;100.00;101453.25;4938111;28;20047;-51
2020/12/20 05:25:43;;;;;;;46.70;24.77;;;;;;;0.09;99.71;101446.22;4933813;28;20044;-50
2020/12/20 05:28:15;;;;;;;46.92;26.52;;;;;;;0.21;99.88;101450.59;4940334;28;20147;-50
2020/12/20 05:30:44;;;;;;;48.92;26.95;;;;;;;-0.23;100.00;101442.03;4933489;28;20082;-51
2020/12/20 05:33:28;;;;;;;51.55;27.38;;;;;;;-0.38;100.00;101443.28;4937389;28;20434;-50
2020/12/20 05:36:00;;;;;;;48.42;25.95;;;;;;;-0.05;100.00;101445.09;4932633;28;20474;-51
2020/12/20 05:38:27;;;;;;;51.10;27.60;;;;;;;-0.21;100.00;101443.00;4936024;28;20524;-48
2020/12/20 05:40:54;;;;;;;54.47;27.65;;;;;;;-0.12;100.00;101440.34;4931918;28;20051;-53
2020/12/20 05:43:25;;;;;;;49.75;27.35;;;;;;;0.08;100.00;101441.94;4936906;28;20065;-54
2020/12/20 05:45:53;;;;;;;50.70;28.38;;;;;;;0.17;100.00;101446.06;4934402;28;20062;-48
2020/12/20 05:48:25;;;;;;;50.35;26.63;;;;;;;0.25;100.00;101449.19;4933906;28;20051;-53
2020/12/20 05:50:53;;;;;;;50.15;27.65;;;;;;;-0.13;100.00;101454.59;4931756;28;20290;-49
2020/12/20 05:53:28;;;;;;;50.00;27.08;;;;;;;0.08;100.00;101455.41;4938869;28;20675;-47
2020/12/20 05:56:04;;;;;;;52.45;26.25;;;;;;;0.36;100.00;101460.09;4932408;28;20130;-52
2020/12/20 05:58:33;;;;;;;51.88;26.63;;;;;;;0.44;99.65;101456.56;4935140;28;20053;-50
2020/12/20 06:01:01;;;;;;;51.95;27.63;;;;;;;0.31;99.86;101462.25;4935186;28;20441;-51
2020/12/20 06:03:28;;;;;;;48.25;26.73;;;;;;;0.16;100.00;101461.06;4937310;28;20077;-52
2020/12/20 06:06:00;;;;;;;48.45;25.67;;;;;;;0.33;100.00;101459.88;4933869;28;20916;-51
2020/12/20 06:08:32;;;;;;;52.00;26.48;;;;;;;0.31;99.55;101457.22;4937319;28;20055;-52
2020/12/20 06:11:02;;;;;;;46.05;25.15;;;;;;;0.27;99.55;101464.41;4932805;28;20139;-53
2020/12/20 06:13:29;;;;;;;46.67;25.08;;;;;;;0.24;99.90;101455.00;4937034;28;20138;-53
2020/12/20 06:15:57;;;;;;;50.67;26.02;;;;;;;0.41;99.40;101454.66;4934731;28;20050;-52
2020/12/20 06:18:29;;;;;;;46.30;26.60;;;;;;;0.17;99.36;101453.63;4938757;28;20058;-50
2020/12/20 06:21:03;;;;;;;46.80;25.92;;;;;;;0.31;99.28;101451.31;4931899;28;20052;-49
2020/12/20 06:23:31;;;;;;;50.53;27.40;;;;;;;0.17;99.83;101452.75;4934566;28;20063;-54
2020/12/20 06:26:00;;;;;;;46.75;26.67;;;;;;;0.12;100.00;101452.38;4935414;28;20050;-52
2020/12/20 06:28:28;;;;;;;47.22;25.55;;;;;;;0.18;100.00;101473.00;4934802;28;20057;-50
2020/12/20 06:30:56;;;;;;;47.55;26.17;;;;;;;0.23;99.88;101468.31;4931318;28;20054;-49
2020/12/20 06:33:45;;;;;;;49.08;26.00;;;;;;;0.22;100.00;101475.00;4935921;28;20607;-52
2020/12/20 06:36:13;;;;;;;50.28;25.88;;;;;;;0.29;99.56;101478.03;4937516;28;20070;-52
2020/12/20 06:38:41;;;;;;;48.38;25.42;;;;;;;0.33;99.47;101477.53;4932297;28;20142;-52
2020/12/20 06:41:08;;;;;;;47.80;25.88;;;;;;;0.28;99.14;101474.63;4938254;28;20142;-55
2020/12/20 06:43:36;;;;;;;46.78;26.02;;;;;;;0.14;99.50;101478.56;4931333;28;20090;-51
2020/12/20 06:46:06;;;;;;;48.92;25.60;;;;;;;0.04;99.59;101478.56;4935333;28;20051;-51
2020/12/20 06:48:38;;;;;;;46.05;26.17;;;;;;;0.18;99.75;101478.03;4936198;28;20047;-48
2020/12/20 06:51:06;;;;;;;49.55;27.58;;;;;;;0.16;100.00;101471.13;4935321;28;20070;-55
2020/12/20 06:53:51;;;;;;;51.63;27.25;;;;;;;0.22;100.00;101471.59;4934682;28;20047;-51
2020/12/20 06:56:23;;;;;;;50.88;27.35;;;;;;;0.40;99.48;101470.53;4930644;28;20047;-50
2020/12/20 06:58:51;;;;;;;47.92;26.02;;;;;;;-0.05;99.89;101466.16;4934937;28;20052;-45
2020/12/20 07:01:38;;;;;;;46.83;25.63;;;;;;;0.26;99.71;101463.53;4930645;28;20050;-44
2020/12/20 07:04:13;;;;;;;46.67;25.77;;;;;;;0.00;99.90;101471.56;4933814;28;20044;-50
2020/12/20 07:06:39;;;;;;;48.40;26.35;;;;;;;-0.03;100.00;101473.81;4931627;28;20695;-48
2020/12/20 07:09:07;;;;;;;44.10;25.20;;;;;;;0.04;100.00;101477.69;4935153;28;20059;-46
2020/12/20 07:11:49;;;;;;;47.60;25.77;;;;;;;0.31;99.49;101476.50;4933722;28;20375;-46
2020/12/20 07:14:21;;;;;;;46.63;24.85;;;;;;;0.12;99.55;101464.97;4934450;28;20085;-47
2020/12/20 07:16:50;;;;;;;48.67;25.80;;;;;;;0.22;100.00;101472.47;4932778;28;20047;-51
2020/12/20 07:19:21;;;;;;;48.17;26.73;;;;;;;0.24;100.00;101473.50;4933766;28;20059;-47
2020/12/20 07:21:53;;;;;;;50.42;26.13;;;;;;;0.04;99.61;101468.50;4935066;28;20067;-49
2020/12/20 07:24:29;;;;;;;45.95;26.02;;;;;;;-0.05;100.00;101481.25;4930324;28;20051;-44
2020/12/20 07:27:00;;;;;;;51.08;27.05;;;;;;;0.31;100.00;101479.91;4931331;29;20055;-45
2020/12/20 07:29:31;;;;;;;49.10;27.05;;;;;;;0.19;99.31;101484.84;4933281;28;20051;-45
2020/12/20 07:31:59;;;;;;;44.22;23.85;;;;;;;0.38;99.43;101484.69;4934128;29;20077;-48
2020/12/20 07:34:27;;;;;;;46.45;24.77;;;;;;;0.49;98.95;101491.41;4930557;28;20473;-49
2020/12/20 07:36:57;;;;;;;42.95;25.00;;;;;;;0.56;98.37;101484.38;4932404;29;20396;-44
2020/12/20 07:39:24;;;;;;;40.00;23.23;;;;;;;0.73;97.76;101484.00;4932531;28;20054;-47
2020/12/20 07:41:56;;;;;;;43.95;24.77;;;;;;;0.71;97.12;101485.56;4928600;29;20047;-50
2020/12/20 07:44:22;;;;;;;43.92;23.65;;;;;;;0.62;97.51;101479.78;4931042;29;20502;-43
2020/12/20 07:46:49;;;;;;;41.60;23.20;;;;;;;0.69;98.00;101487.97;4931312;29;20372;-45
2020/12/20 07:49:16;;;;;;;43.15;24.10;;;;;;;0.22;97.86;101477.53;4931800;28;20124;-44
2020/12/20 07:51:43;;;;;;;43.25;25.10;;;;;;;0.08;99.32;101468.00;4930706;29;20122;-47
2020/12/20 07:54:15;;;;;;;46.13;25.02;;;;;;;0.20;99.00;101473.13;4932442;29;20592;-46
2020/12/20 07:56:45;;;;;;;46.83;25.13;;;;;;;0.39;98.97;101467.91;4931301;29;20052;-47
2020/12/20 07:59:14;;;;;;;41.20;22.80;;;;;;;0.45;98.60;101474.31;4932348;29;20106;-44
2020/12/20 08:01:46;;;;;;;40.88;23.60;;;;;;;0.40;98.47;101470.53;4931427;29;20051;-46
2020/12/20 08:04:15;;;;;;;39.88;22.75;;;;;;;0.78;97.68;101480.22;4931464;29;20143;-46
2020/12/20 08:06:48;;;;;;;41.10;23.23;;;;;;;0.90;97.22;101470.19;4927888;28;20502;-46
2020/12/20 08:09:24;;;;;;;39.38;24.13;;;;;;;0.92;97.20;101477.09;4932587;28;20047;-49
2020/12/20 08:11:56;;;;;;;36.35;21.75;;;;;;;0.98;95.99;101486.81;4933165;29;20090;-53
2020/12/20 08:14:24;;;;;;;38.78;22.65;;;;;;;0.89;96.37;101481.94;4930908;29;20055;-46
2020/12/20 08:16:53;;;;;;;37.88;21.90;;;;;;;0.82;95.91;101483.84;4930326;29;20063;-48
2020/12/20 08:19:24;;;;;;;38.38;20.65;;;;;;;1.00;95.71;101485.25;4931155;29;20161;-45
2020/12/20 08:22:03;;;;;;;36.28;20.27;;;;;;;0.94;95.68;101490.72;4931938;29;20584;-48
2020/12/20 08:24:32;;;;;;;38.55;21.45;;;;;;;0.89;95.06;101483.56;4931775;29;20058;-50
2020/12/20 08:27:11;;;;;;;37.65;20.08;;;;;;;1.14;95.31;101496.41;4933353;29;20127;-45
2020/12/20 08:29:40;;;;;;;35.78;21.25;;;;;;;0.84;95.98;101503.38;4930295;29;20044;-48
2020/12/20 08:32:12;;;;;;;35.95;21.40;;;;;;;1.08;95.65;101499.34;4935017;29;20098;-49
2020/12/20 08:34:38;;;;;;;38.30;21.17;;;;;;;1.07;96.04;101501.78;4935010;28;20058;-47
2020/12/20 08:37:32;;;;;;;33.00;20.08;;;;;;;1.14;95.25;101506.50;4937040;28;20054;-47
2020/12/20 08:40:14;;;;;;;34.47;21.13;;;;;;;1.06;95.04;101508.41;4931377;28;20039;-49
2020/12/20 08:42:42;;;;;;;34.90;20.10;;;;;;;1.32;94.04;101499.44;4936450;28;20059;-44
2020/12/20 08:45:20;;;;;;;35.13;20.70;;;;;;;1.34;94.60;101497.91;4937537;28;20055;-45
2020/12/20 08:47:48;;;;;;;35.45;20.25;;;;;;;1.22;94.81;101510.50;4934225;28;20044;-46
2020/12/20 08:50:24;;;;;;;34.58;18.95;;;;;;;1.41;93.72;101508.59;4938135;28;20091;-46
2020/12/20 08:53:05;;;;;;;36.22;21.25;;;;;;;1.12;94.64;101515.59;4935178;28;20051;-46
2020/12/20 08:55:33;;;;;;;35.53;20.35;;;;;;;1.37;93.60;101519.22;4933948;28;20446;-44
2020/12/20 08:58:07;;;;;;;30.58;18.38;;;;;;;1.37;93.77;101515.81;4935888;28;20644;-45
2020/12/20 09:00:35;;;;;;;33.90;19.67;;;;;;;1.48;92.76;101510.81;4935687;28;20054;-46
2020/12/20 09:03:04;;;;;;;34.90;21.25;;;;;;;1.01;94.61;101514.75;4936346;28;20142;-47
2020/12/20 09:05:33;;;;;;;33.28;20.48;;;;;;;1.02;95.01;101517.41;4933168;28;20055;-43
2020/12/20 09:08:00;;;;;;;31.92;19.85;;;;;;;1.49;93.31;101511.69;4935642;28;20055;-45
2020/12/20 09:10:33;;;;;;;32.78;19.70;;;;;;;1.79;93.01;101508.91;4924744;28;20768;-42
2020/12/20 09:13:03;;;;;;;;;;;;;;;1.92;91.57;101510.72;4931583;29;20048;-46
2020/12/20 09:15:30;;;;;;;27.52;17.27;;;;;;;2.28;90.16;101506.56;4929794;29;19937;-43
2020/12/20 09:17:59;;;;;;;25.38;16.42;;;;;;;2.26;90.07;101508.97;4933246;28;20051;-44
2020/12/20 09:20:28;;;;;;;27.52;17.40;;;;;;;3.35;85.20;101503.06;4936339;28;20067;-44
2020/12/20 09:22:56;;;;;;;24.70;15.23;;;;;;;4.15;80.63;101496.50;4932465;28;20102;-42
2020/12/20 09:25:43;;;;;;;23.15;15.10;;;;;;;5.32;75.80;101495.34;4936689;28;20051;-43
2020/12/20 09:28:12;;;;;;;19.63;14.25;;;;;;;6.78;70.34;101492.66;4934593;28;20047;-49
2020/12/20 09:30:42;;;;;;;20.25;13.65;;;;;;;5.79;72.23;101485.44;4931919;28;20090;-43
2020/12/20 09:33:22;;;;;;;21.95;15.00;;;;;;;4.30;78.23;101487.38;4931879;28;20051;-43
2020/12/20 09:35:49;;;;;;;22.05;14.55;;;;;;;4.34;78.46;101487.66;4932116;28;20044;-45
2020/12/20 09:38:16;;;;;;;23.48;16.42;;;;;;;3.36;82.34;101475.31;4929715;28;20073;-48
2020/12/20 09:40:44;;;;;;;24.95;16.77;;;;;;;3.36;82.54;101487.09;4931293;28;20422;-46
2020/12/20 09:43:18;;;;;;;25.95;16.20;;;;;;;3.36;83.47;101492.16;4934232;28;20063;-45
2020/12/20 09:45:45;;;;;;;23.88;15.77;;;;;;;3.72;82.61;101497.13;4933348;28;20047;-44
2020/12/20 09:48:12;;;;;;;58.80;16.65;;;;;;;3.48;84.64;101491.31;4936904;28;20077;-45
2020/12/20 09:50:38;;;;;;;22.70;14.70;;;;;;;3.52;83.16;101500.00;4933026;28;20047;-43
2020/12/20 09:53:05;;;;;;;25.23;15.00;;;;;;;4.06;80.85;101501.84;4935962;28;20055;-45
2020/12/20 09:55:32;;;;;;;22.05;13.93;;;;;;;4.17;80.50;101497.50;4935589;28;20075;-44
2020/12/20 09:57:58;;;;;;;23.92;15.25;;;;;;;4.02;80.54;101495.75;4934969;28;20052;-44
2020/12/20 10:00:25;;;;;;;23.85;16.00;;;;;;;2.97;86.05;101503.84;4936247;28;20391;-46
2020/12/20 10:02:51;;;;;;;23.63;15.27;;;;;;;3.49;85.20;101502.31;4933905;28;20553;-44
2020/12/20 10:05:18;;;;;;;23.83;15.07;;;;;;;3.89;84.78;101487.25;4936316;28;20053;-48
2020/12/20 10:07:45;;;;;;;23.42;15.43;;;;;;;3.76;82.64;101486.44;4930904;28;20465;-43
2020/12/20 10:10:11;;;;;;;20.95;13.77;;;;;;;4.31;80.19;101484.06;4932288;29;20509;-43
2020/12/20 10:12:40;;;;;;;20.45;13.98;;;;;;;4.78;78.77;101487.00;4929897;29;20040;-43
2020/12/20 10:15:06;;;;;;;23.38;15.38;;;;;;;3.95;82.90;101480.03;4933205;29;20047;-43
2020/12/20 10:17:33;;;;;;;21.75;14.32;;;;;;;4.46;80.18;101472.34;4932127;28;20051;-42
2020/12/20 10:19:59;;;;;;;20.40;14.18;;;;;;;4.40;79.29;101479.56;4927595;29;20114;-45
2020/12/20 10:22:26;;;;;;;21.15;14.00;;;;;;;4.51;79.38;101485.31;4933875;28;20141;-42
2020/12/20 10:24:53;;;;;;;20.23;13.75;;;;;;;4.34;81.69;101479.16;4929510;28;20047;-46
2020/12/20 10:27:20;;;;;;;21.80;14.52;;;;;;;4.20;80.59;101469.81;4930202;28;20066;-46
2020/12/20 10:29:47;;;;;;;19.67;13.25;;;;;;;4.04;82.26;101461.22;4927682;29;20055;-48
2020/12/20 10:32:14;;;;;;;21.67;13.85;;;;;;;3.91;81.06;101456.16;4928491;29;20077;-47
2020/12/20 10:34:41;;;;;;;19.70;14.07;;;;;;;3.88;82.53;101457.59;4927078;29;20117;-40
2020/12/20 10:37:08;;;;;;;19.27;13.35;;;;;;;4.57;81.35;101448.50;4935988;28;20051;-44
2020/12/20 10:39:34;;;;;;;17.35;12.82;;;;;;;4.83;80.14;101444.16;4934395;28;20051;-40
2020/12/20 10:42:02;;;;;;;17.40;12.77;;;;;;;5.21;76.10;101446.44;4934431;28;20060;-50
2020/12/20 10:44:29;;;;;;;24.33;13.32;;;;;;;5.08;77.50;101444.88;4934736;28;20058;-41
2020/12/20 10:46:56;;;;;;;17.52;12.38;;;;;;;4.58;78.99;101450.28;4933647;28;20056;-42
2020/12/20 10:49:23;;;;;;;18.40;12.50;;;;;;;4.55;80.39;101445.00;4935181;28;20066;-40
2020/12/20 10:51:54;;;;;;;17.40;13.07;;;;;;;4.22;80.38;101450.50;4933431;28;20060;-43
2020/12/20 10:54:21;;;;;;;18.45;13.70;;;;;;;4.58;80.13;101452.81;4935194;28;20055;-43
2020/12/20 10:56:48;;;;;;;18.35;12.15;;;;;;;4.87;78.60;101438.50;4937065;28;20056;-42
2020/12/20 10:59:16;;;;;;;17.67;12.43;;;;;;;4.96;77.71;101441.59;4940363;28;20051;-45
2020/12/20 11:01:43;;;;;;;20.63;14.20;;;;;;;4.52;80.39;101442.28;4937256;28;20055;-45
2020/12/20 11:04:09;;;;;;;18.08;13.38;;;;;;;4.81;78.69;101444.09;4936691;28;20055;-42
2020/12/20 11:06:36;;;;;;;18.73;11.95;;;;;;;4.78;77.79;101450.63;4929701;29;20048;-43
2020/12/20 11:09:03;;;;;;;15.30;11.52;;;;;;;5.00;77.68;101456.22;4933815;28;20421;-44
2020/12/20 11:11:31;;;;;;;16.27;11.23;;;;;;;4.85;78.19;101446.03;4933190;29;20048;-41
2020/12/20 11:13:58;;;;;;;13.95;10.98;;;;;;;5.19;76.84;101437.88;4936508;28;20110;-42
2020/12/20 11:16:26;;;;;;;15.13;10.18;;;;;;;5.11;76.57;101449.22;4933346;29;20422;-38
2020/12/20 11:18:52;;;;;;;16.40;11.68;;;;;;;4.49;79.25;101442.09;4933960;29;20406;-43
2020/12/20 11:21:19;;;;;;;14.30;11.05;;;;;;;4.56;79.74;101440.81;4934616;29;20058;-37